createdAt,value
2019-02-25T00:00:00.558Z,3.60
2019-02-25T00:00:51.806Z,3.60
2019-02-25T00:01:29.730Z,3.60
2019-02-25T00:02:08.151Z,3.60
2019-02-25T00:02:40.782Z,3.50
2019-02-25T00:03:13.269Z,3.60
2019-02-25T00:03:46.142Z,3.60
2019-02-25T00:04:18.621Z,3.60
2019-02-25T00:04:51.078Z,3.60
2019-02-25T00:05:23.839Z,3.60
2019-02-25T00:05:56.645Z,3.70
2019-02-25T00:06:29.058Z,3.60
2019-02-25T00:07:01.514Z,3.60
2019-02-25T00:07:34.277Z,3.60
2019-02-25T00:08:07.582Z,3.60
2019-02-25T00:08:40.143Z,3.60
2019-02-25T00:09:12.966Z,3.60
2019-02-25T00:09:45.919Z,3.60
2019-02-25T00:10:18.384Z,3.70
2019-02-25T00:10:51.140Z,3.70
2019-02-25T00:11:24.416Z,3.70
2019-02-25T00:11:57.261Z,3.70
2019-02-25T00:12:29.753Z,3.70
2019-02-25T00:13:02.235Z,3.70
2019-02-25T00:13:34.751Z,3.70
2019-02-25T00:14:07.525Z,3.70
2019-02-25T00:14:40.017Z,3.70
2019-02-25T00:15:12.495Z,3.70
2019-02-25T00:15:45.250Z,3.80
2019-02-25T00:16:17.714Z,3.80
2019-02-25T00:16:50.173Z,3.80
2019-02-25T00:17:22.678Z,3.80
2019-02-25T00:17:55.587Z,3.70
2019-02-25T00:18:28.395Z,3.70
2019-02-25T00:19:00.855Z,3.60
2019-02-25T00:19:33.329Z,3.60
2019-02-25T00:20:08.863Z,3.60
2019-02-25T00:20:41.335Z,3.60
2019-02-25T00:21:13.791Z,3.60
2019-02-25T00:21:46.251Z,3.60
2019-02-25T00:22:18.712Z,3.60
2019-02-25T00:22:51.845Z,3.60
2019-02-25T00:23:25.396Z,3.60
2019-02-25T00:23:58.134Z,3.60
2019-02-25T00:24:30.884Z,3.60
2019-02-25T00:25:03.733Z,3.60
2019-02-25T00:25:36.223Z,3.60
2019-02-25T00:26:08.703Z,3.60
2019-02-25T00:26:41.488Z,3.60
2019-02-25T00:27:13.946Z,3.60
2019-02-25T00:27:46.423Z,3.60
2019-02-25T00:28:19.270Z,3.70
2019-02-25T00:28:52.363Z,3.70
2019-02-25T00:29:25.109Z,3.70
2019-02-25T00:29:57.938Z,3.70
2019-02-25T00:30:30.405Z,3.60
2019-02-25T00:31:02.941Z,3.60
2019-02-25T00:31:35.784Z,3.60
2019-02-25T00:32:08.237Z,3.60
2019-02-25T00:32:41.421Z,3.60
2019-02-25T00:33:13.895Z,3.50
2019-02-25T00:33:46.346Z,3.50
2019-02-25T00:34:18.797Z,3.50
2019-02-25T00:34:51.563Z,3.50
2019-02-25T00:35:24.017Z,3.50
2019-02-25T00:35:56.498Z,3.40
2019-02-25T00:36:28.988Z,3.50
2019-02-25T00:37:01.446Z,3.40
2019-02-25T00:37:33.907Z,3.40
2019-02-25T00:38:06.748Z,3.40
2019-02-25T00:38:39.505Z,3.40
2019-02-25T00:39:11.972Z,3.40
2019-02-25T00:39:44.758Z,3.30
2019-02-25T00:40:17.230Z,3.30
2019-02-25T00:40:50.021Z,3.30
2019-02-25T00:41:22.486Z,3.30
2019-02-25T00:41:55.298Z,3.30
2019-02-25T00:42:27.776Z,3.30
2019-02-25T00:43:00.995Z,3.20
2019-02-25T00:43:34.384Z,3.20
2019-02-25T00:44:06.851Z,3.20
2019-02-25T00:44:39.585Z,3.20
2019-02-25T00:45:12.426Z,3.20
2019-02-25T00:45:44.884Z,3.20
2019-02-25T00:46:17.337Z,3.20
2019-02-25T00:46:49.807Z,3.20
2019-02-25T00:47:22.290Z,3.20
2019-02-25T00:47:55.130Z,3.20
2019-02-25T00:48:27.593Z,3.20
2019-02-25T00:49:00.421Z,3.20
2019-02-25T00:49:33.237Z,3.20
2019-02-25T00:50:08.066Z,3.20
2019-02-25T00:50:40.544Z,3.20
2019-02-25T00:51:13.014Z,3.20
2019-02-25T00:51:45.829Z,3.20
2019-02-25T00:52:18.590Z,3.20
2019-02-25T00:52:51.382Z,3.20
2019-02-25T00:53:24.201Z,3.20
2019-02-25T00:53:56.668Z,3.20
2019-02-25T00:54:29.151Z,3.30
2019-02-25T00:55:01.616Z,3.30
2019-02-25T00:55:34.082Z,3.30
2019-02-25T00:56:06.551Z,3.30
2019-02-25T00:56:39.016Z,3.40
2019-02-25T00:57:12.119Z,3.30
2019-02-25T00:57:44.589Z,3.40
2019-02-25T00:58:17.394Z,3.40
2019-02-25T00:58:50.214Z,3.40
2019-02-25T00:59:22.700Z,3.40
2019-02-25T00:59:55.926Z,3.40
2019-02-25T01:00:28.490Z,3.40
2019-02-25T01:01:00.964Z,3.40
2019-02-25T01:01:33.452Z,3.40
2019-02-25T01:02:05.919Z,3.40
2019-02-25T01:02:38.392Z,3.30
2019-02-25T01:03:10.977Z,3.30
2019-02-25T01:03:43.762Z,3.30
2019-02-25T01:04:16.530Z,3.30
2019-02-25T01:04:49.284Z,3.20
2019-02-25T01:05:21.740Z,3.20
2019-02-25T01:05:54.219Z,3.20
2019-02-25T01:06:26.677Z,3.30
2019-02-25T01:06:59.127Z,3.20
2019-02-25T01:07:31.577Z,3.20
2019-02-25T01:08:04.066Z,3.20
2019-02-25T01:08:36.814Z,3.20
2019-02-25T01:09:09.315Z,3.20
2019-02-25T01:09:41.780Z,3.20
2019-02-25T01:10:15.346Z,3.20
2019-02-25T01:10:47.806Z,3.20
2019-02-25T01:11:20.559Z,3.20
2019-02-25T01:11:53.402Z,3.20
2019-02-25T01:12:26.637Z,3.20
2019-02-25T01:12:59.520Z,3.20
2019-02-25T01:13:31.991Z,3.10
2019-02-25T01:14:04.668Z,3.10
2019-02-25T01:14:37.491Z,3.10
2019-02-25T01:15:09.979Z,3.10
2019-02-25T01:15:42.448Z,3.10
2019-02-25T01:16:14.911Z,3.10
2019-02-25T01:16:47.372Z,3.10
2019-02-25T01:17:20.185Z,3.10
2019-02-25T01:17:53.160Z,3.10
2019-02-25T01:18:25.618Z,3.20
2019-02-25T01:18:58.084Z,3.20
2019-02-25T01:19:30.533Z,3.20
2019-02-25T01:20:03.181Z,3.20
2019-02-25T01:20:35.641Z,3.20
2019-02-25T01:21:08.457Z,3.20
2019-02-25T01:21:40.911Z,3.20
2019-02-25T01:22:13.755Z,3.20
2019-02-25T01:22:46.232Z,3.20
2019-02-25T01:23:18.673Z,3.20
2019-02-25T01:23:51.260Z,3.20
2019-02-25T01:24:23.728Z,3.30
2019-02-25T01:24:56.499Z,3.30
2019-02-25T01:25:28.999Z,3.30
2019-02-25T01:26:01.454Z,3.30
2019-02-25T01:26:33.909Z,3.30
2019-02-25T01:27:06.742Z,3.30
2019-02-25T01:27:39.215Z,3.30
2019-02-25T01:28:11.667Z,3.20
2019-02-25T01:28:44.892Z,3.20
2019-02-25T01:29:17.727Z,3.20
2019-02-25T01:29:50.501Z,3.20
2019-02-25T01:30:23.403Z,3.20
2019-02-25T01:30:55.883Z,3.20
2019-02-25T01:31:28.691Z,3.10
2019-02-25T01:32:01.163Z,3.10
2019-02-25T01:32:33.622Z,3.10
2019-02-25T01:33:06.087Z,3.10
2019-02-25T01:33:38.541Z,3.10
2019-02-25T01:34:11.010Z,3.10
2019-02-25T01:34:43.775Z,3.20
2019-02-25T01:35:16.522Z,3.20
2019-02-25T01:35:49.290Z,3.20
2019-02-25T01:36:21.781Z,3.20
2019-02-25T01:36:54.247Z,3.20
2019-02-25T01:37:27.092Z,3.20
2019-02-25T01:37:59.562Z,3.20
2019-02-25T01:38:32.022Z,3.20
2019-02-25T01:39:05.656Z,3.20
2019-02-25T01:39:38.119Z,3.30
2019-02-25T01:40:10.930Z,3.40
2019-02-25T01:40:43.369Z,3.40
2019-02-25T01:41:15.843Z,3.50
2019-02-25T01:41:48.326Z,3.40
2019-02-25T01:42:21.791Z,3.50
2019-02-25T01:42:54.630Z,3.50
2019-02-25T01:43:27.078Z,3.50
2019-02-25T01:43:59.954Z,3.50
2019-02-25T01:44:33.326Z,3.50
2019-02-25T01:45:07.765Z,3.40
2019-02-25T01:45:40.236Z,3.40
2019-02-25T01:46:13.540Z,3.50
2019-02-25T01:46:45.985Z,3.50
2019-02-25T01:47:18.474Z,3.50
2019-02-25T01:47:51.210Z,3.50
2019-02-25T01:48:23.677Z,3.50
2019-02-25T01:48:56.134Z,3.50
2019-02-25T01:49:28.604Z,3.50
2019-02-25T01:50:01.062Z,3.60
2019-02-25T01:50:33.524Z,3.60
2019-02-25T01:51:06.721Z,3.50
2019-02-25T01:51:39.179Z,3.50
2019-02-25T01:52:11.655Z,3.50
2019-02-25T01:52:44.741Z,3.50
2019-02-25T01:53:17.214Z,3.60
2019-02-25T01:53:49.679Z,3.60
2019-02-25T01:54:22.154Z,3.60
2019-02-25T01:54:54.935Z,3.60
2019-02-25T01:56:00.722Z,3.60
2019-02-25T01:56:33.205Z,3.60
2019-02-25T01:57:05.682Z,3.70
2019-02-25T01:57:38.436Z,3.70
2019-02-25T01:58:10.948Z,3.70
2019-02-25T01:58:43.407Z,3.60
2019-02-25T01:59:15.880Z,3.60
2019-02-25T01:59:48.347Z,3.60
2019-02-25T02:00:20.841Z,3.60
2019-02-25T02:00:53.307Z,3.60
2019-02-25T02:01:26.231Z,3.60
2019-02-25T02:01:58.705Z,3.60
2019-02-25T02:02:31.184Z,3.60
2019-02-25T02:03:03.663Z,3.60
2019-02-25T02:03:36.167Z,3.60
2019-02-25T02:04:09.121Z,3.50
2019-02-25T02:04:41.906Z,3.50
2019-02-25T02:05:14.383Z,3.50
2019-02-25T02:05:46.864Z,3.40
2019-02-25T02:06:19.343Z,3.40
2019-02-25T02:06:52.098Z,3.30
2019-02-25T02:07:24.611Z,3.30
2019-02-25T02:07:57.495Z,3.30
2019-02-25T02:08:29.960Z,3.20
2019-02-25T02:09:02.677Z,3.20
2019-02-25T02:09:35.838Z,3.10
2019-02-25T02:10:09.857Z,3.10
2019-02-25T02:10:42.661Z,3.10
2019-02-25T02:11:15.129Z,3.10
2019-02-25T02:11:47.616Z,3.00
2019-02-25T02:12:20.399Z,3.00
2019-02-25T02:12:52.866Z,3.00
2019-02-25T02:13:25.345Z,3.00
2019-02-25T02:13:58.200Z,3.00
2019-02-25T02:14:30.703Z,3.00
2019-02-25T02:15:04.679Z,2.90
2019-02-25T02:15:37.160Z,2.90
2019-02-25T02:16:09.995Z,2.90
2019-02-25T02:16:42.472Z,2.90
2019-02-25T02:17:15.327Z,2.90
2019-02-25T02:17:47.805Z,2.80
2019-02-25T02:18:21.242Z,2.80
2019-02-25T02:18:54.492Z,2.80
2019-02-25T02:19:26.976Z,2.80
2019-02-25T02:19:59.477Z,2.80
2019-02-25T02:20:31.941Z,2.80
2019-02-25T02:21:04.413Z,2.80
2019-02-25T02:21:36.879Z,2.80
2019-02-25T02:22:09.740Z,2.80
2019-02-25T02:22:42.574Z,2.80
2019-02-25T02:23:15.045Z,2.80
2019-02-25T02:23:47.605Z,2.80
2019-02-25T02:24:20.087Z,2.80
2019-02-25T02:24:53.347Z,2.80
2019-02-25T02:25:26.523Z,2.80
2019-02-25T02:25:58.982Z,2.80
2019-02-25T02:26:31.464Z,2.80
2019-02-25T02:27:04.271Z,2.80
2019-02-25T02:27:36.745Z,2.90
2019-02-25T02:28:09.194Z,2.80
2019-02-25T02:28:41.684Z,2.80
2019-02-25T02:29:14.152Z,2.80
2019-02-25T02:29:46.636Z,2.80
2019-02-25T02:30:19.499Z,2.80
2019-02-25T02:30:52.388Z,2.80
2019-02-25T02:31:25.225Z,2.90
2019-02-25T02:31:57.686Z,2.90
2019-02-25T02:32:30.448Z,2.80
2019-02-25T02:33:03.571Z,2.90
2019-02-25T02:33:36.044Z,2.90
2019-02-25T02:34:08.897Z,2.90
2019-02-25T02:34:41.366Z,2.90
2019-02-25T02:35:13.854Z,2.90
2019-02-25T02:35:46.991Z,2.90
2019-02-25T02:36:19.762Z,2.90
2019-02-25T02:36:52.371Z,2.90
2019-02-25T02:37:25.224Z,2.90
2019-02-25T02:37:58.046Z,2.90
2019-02-25T02:38:30.505Z,3.00
2019-02-25T02:39:04.274Z,3.00
2019-02-25T02:39:36.742Z,3.00
2019-02-25T02:40:09.355Z,3.00
2019-02-25T02:40:42.482Z,3.00
2019-02-25T02:41:15.302Z,3.00
2019-02-25T02:42:16.025Z,2.90
2019-02-25T02:42:50.815Z,2.90
2019-02-25T02:43:23.288Z,3.00
2019-02-25T02:43:55.767Z,2.90
2019-02-25T02:44:28.256Z,2.90
2019-02-25T02:45:26.970Z,2.90
2019-02-25T02:46:24.505Z,2.90
2019-02-25T02:47:25.639Z,2.80
2019-02-25T02:48:04.566Z,2.80
2019-02-25T02:48:44.166Z,2.80
2019-02-25T02:49:17.058Z,2.70
2019-02-25T02:49:49.543Z,2.70
2019-02-25T02:50:23.635Z,2.70
2019-02-25T02:50:56.469Z,2.70
2019-02-25T02:51:29.055Z,2.70
2019-02-25T02:52:01.530Z,2.70
2019-02-25T02:52:34.031Z,2.70
2019-02-25T02:53:06.842Z,2.70
2019-02-25T02:53:39.911Z,2.70
2019-02-25T02:54:12.395Z,2.70
2019-02-25T02:54:44.866Z,2.70
2019-02-25T02:55:17.709Z,2.80
2019-02-25T02:55:50.187Z,2.80
2019-02-25T02:56:22.661Z,2.80
2019-02-25T02:56:55.714Z,2.80
2019-02-25T02:57:28.178Z,2.80
2019-02-25T02:58:00.671Z,2.80
2019-02-25T02:58:33.618Z,2.80
2019-02-25T02:59:06.364Z,2.80
2019-02-25T02:59:39.192Z,2.80
2019-02-25T03:00:14.291Z,2.80
2019-02-25T03:00:46.751Z,2.80
2019-02-25T03:01:19.241Z,2.80
2019-02-25T03:01:52.190Z,2.80
2019-02-25T03:02:24.668Z,2.80
2019-02-25T03:02:57.853Z,2.80
2019-02-25T03:03:30.351Z,2.80
2019-02-25T03:04:03.229Z,2.80
2019-02-25T03:04:35.681Z,2.80
2019-02-25T03:05:10.526Z,2.80
2019-02-25T03:05:42.990Z,2.80
2019-02-25T03:06:15.459Z,2.80
2019-02-25T03:06:47.927Z,2.80
2019-02-25T03:07:20.844Z,2.80
2019-02-25T03:07:53.617Z,2.70
2019-02-25T03:08:26.398Z,2.80
2019-02-25T03:08:58.949Z,2.80
2019-02-25T03:09:31.440Z,2.80
2019-02-25T03:10:05.410Z,2.80
2019-02-25T03:10:37.883Z,2.80
2019-02-25T03:11:10.365Z,2.80
2019-02-25T03:11:42.818Z,2.80
2019-02-25T03:12:15.283Z,2.90
2019-02-25T03:12:47.760Z,2.80
2019-02-25T03:13:20.346Z,2.80
2019-02-25T03:13:53.153Z,2.80
2019-02-25T03:14:25.670Z,2.80
2019-02-25T03:14:58.488Z,2.80
2019-02-25T03:15:31.496Z,2.80
2019-02-25T03:16:03.978Z,2.70
2019-02-25T03:16:37.150Z,2.70
2019-02-25T03:17:09.615Z,2.70
2019-02-25T03:17:42.726Z,2.60
2019-02-25T03:18:15.332Z,2.60
2019-02-25T03:18:47.808Z,2.60
2019-02-25T03:19:20.402Z,2.60
2019-02-25T03:19:52.916Z,2.60
2019-02-25T03:20:25.704Z,2.60
2019-02-25T03:20:58.456Z,2.70
2019-02-25T03:21:30.923Z,2.70
2019-02-25T03:22:03.408Z,2.60
2019-02-25T03:22:35.899Z,2.70
2019-02-25T03:23:08.369Z,2.60
2019-02-25T03:23:40.915Z,2.60
2019-02-25T03:24:13.331Z,2.60
2019-02-25T03:24:45.812Z,2.60
2019-02-25T03:25:18.978Z,2.60
2019-02-25T03:25:51.446Z,2.60
2019-02-25T03:26:24.559Z,2.50
2019-02-25T03:26:57.317Z,2.50
2019-02-25T03:27:30.112Z,2.50
2019-02-25T03:28:03.219Z,2.50
2019-02-25T03:28:36.096Z,2.60
2019-02-25T03:29:08.902Z,2.60
2019-02-25T03:29:41.365Z,2.60
2019-02-25T03:30:18.964Z,2.60
2019-02-25T03:30:51.462Z,2.60
2019-02-25T03:31:24.211Z,2.60
2019-02-25T03:31:56.700Z,2.50
2019-02-25T03:32:29.150Z,2.50
2019-02-25T03:33:01.629Z,2.50
2019-02-25T03:33:34.108Z,2.50
2019-02-25T03:34:06.580Z,2.60
2019-02-25T03:34:39.034Z,2.50
2019-02-25T03:35:11.880Z,2.50
2019-02-25T03:35:44.357Z,2.50
2019-02-25T03:36:16.855Z,2.50
2019-02-25T03:36:49.332Z,2.50
2019-02-25T03:37:21.786Z,2.50
2019-02-25T03:37:54.525Z,2.50
2019-02-25T03:38:33.524Z,2.50
2019-02-25T03:39:06.451Z,2.50
2019-02-25T03:39:38.908Z,2.50
2019-02-25T03:40:13.989Z,2.50
2019-02-25T03:40:46.917Z,2.60
2019-02-25T03:41:19.334Z,2.60
2019-02-25T03:41:51.849Z,2.70
2019-02-25T03:42:24.293Z,2.70
2019-02-25T03:42:56.766Z,2.80
2019-02-25T03:43:29.256Z,2.80
2019-02-25T03:44:01.723Z,2.80
2019-02-25T03:44:34.189Z,2.90
2019-02-25T03:45:08.098Z,2.90
2019-02-25T03:45:40.987Z,2.90
2019-02-25T03:46:14.413Z,3.00
2019-02-25T03:46:47.215Z,3.00
2019-02-25T03:47:20.474Z,2.90
2019-02-25T03:47:53.026Z,2.90
2019-02-25T03:48:25.524Z,2.90
2019-02-25T03:48:58.376Z,2.90
2019-02-25T03:49:30.826Z,2.90
2019-02-25T03:50:03.540Z,2.90
2019-02-25T03:50:36.401Z,2.90
2019-02-25T03:51:08.862Z,2.90
2019-02-25T03:51:41.822Z,2.80
2019-02-25T03:52:14.752Z,2.90
2019-02-25T03:52:47.254Z,2.80
2019-02-25T03:53:19.719Z,2.70
2019-02-25T03:53:52.475Z,2.70
2019-02-25T03:54:25.213Z,2.70
2019-02-25T03:54:57.685Z,2.60
2019-02-25T03:55:30.480Z,2.60
2019-02-25T03:56:03.406Z,2.60
2019-02-25T03:56:35.881Z,2.50
2019-02-25T03:57:08.344Z,2.60
2019-02-25T03:57:41.140Z,2.50
2019-02-25T03:58:14.310Z,2.50
2019-02-25T03:58:46.898Z,2.50
2019-02-25T03:59:19.358Z,2.50
2019-02-25T03:59:51.825Z,2.40
2019-02-25T04:00:24.310Z,2.40
2019-02-25T04:00:57.123Z,2.40
2019-02-25T04:01:29.595Z,2.40
2019-02-25T04:02:02.353Z,2.30
2019-02-25T04:02:35.137Z,2.30
2019-02-25T04:03:07.974Z,2.30
2019-02-25T04:03:40.471Z,2.30
2019-02-25T04:04:13.212Z,2.30
2019-02-25T04:04:47.490Z,2.20
2019-02-25T04:05:19.975Z,2.20
2019-02-25T04:05:52.867Z,2.20
2019-02-25T04:06:26.038Z,2.20
2019-02-25T04:06:58.515Z,2.20
2019-02-25T04:07:30.997Z,2.20
2019-02-25T04:08:03.828Z,2.20
2019-02-25T04:08:36.308Z,2.20
2019-02-25T04:09:08.820Z,2.20
2019-02-25T04:09:41.584Z,2.10
2019-02-25T04:10:14.414Z,2.20
2019-02-25T04:10:46.843Z,2.10
2019-02-25T04:11:19.322Z,2.10
2019-02-25T04:11:51.786Z,2.10
2019-02-25T04:12:24.287Z,2.10
2019-02-25T04:12:56.768Z,2.10
2019-02-25T04:13:29.235Z,2.10
2019-02-25T04:14:01.755Z,2.10
2019-02-25T04:14:35.099Z,2.00
2019-02-25T04:15:10.340Z,2.00
2019-02-25T04:15:44.271Z,2.00
2019-02-25T04:16:16.761Z,2.00
2019-02-25T04:16:49.250Z,2.00
2019-02-25T04:17:22.112Z,2.10
2019-02-25T04:17:55.186Z,2.10
2019-02-25T04:18:28.015Z,2.10
2019-02-25T04:19:00.479Z,2.10
2019-02-25T04:19:33.300Z,2.10
2019-02-25T04:20:07.448Z,2.10
2019-02-25T04:20:40.361Z,2.10
2019-02-25T04:21:12.831Z,2.10
2019-02-25T04:21:45.306Z,2.20
2019-02-25T04:22:18.161Z,2.10
2019-02-25T04:22:50.907Z,2.20
2019-02-25T04:23:23.689Z,2.20
2019-02-25T04:23:56.461Z,2.20
2019-02-25T04:24:28.939Z,2.20
2019-02-25T04:25:01.412Z,2.30
2019-02-25T04:25:33.902Z,2.30
2019-02-25T04:26:06.374Z,2.30
2019-02-25T04:26:38.842Z,2.30
2019-02-25T04:27:11.334Z,2.30
2019-02-25T04:27:43.796Z,2.30
2019-02-25T04:28:16.263Z,2.30
2019-02-25T04:28:49.124Z,2.40
2019-02-25T04:29:21.578Z,2.40
2019-02-25T04:29:55.269Z,2.40
2019-02-25T04:30:28.574Z,2.40
2019-02-25T04:31:01.625Z,2.40
2019-02-25T04:31:34.093Z,2.30
2019-02-25T04:32:06.601Z,2.30
2019-02-25T04:32:39.427Z,2.30
2019-02-25T04:33:11.896Z,2.20
2019-02-25T04:33:44.378Z,2.30
2019-02-25T04:34:17.625Z,2.20
2019-02-25T04:34:50.694Z,2.20
2019-02-25T04:35:23.171Z,2.10
2019-02-25T04:35:55.667Z,2.10
2019-02-25T04:36:28.487Z,2.10
2019-02-25T04:37:01.682Z,2.10
2019-02-25T04:37:34.172Z,2.10
2019-02-25T04:38:07.304Z,2.00
2019-02-25T04:38:39.771Z,2.00
2019-02-25T04:39:12.635Z,2.00
2019-02-25T04:39:45.447Z,2.00
2019-02-25T04:40:17.923Z,2.00
2019-02-25T04:40:50.381Z,2.00
2019-02-25T04:41:22.856Z,2.00
2019-02-25T04:41:55.769Z,1.90
2019-02-25T04:42:28.250Z,1.90
2019-02-25T04:43:01.092Z,1.90
2019-02-25T04:43:33.560Z,1.90
2019-02-25T04:44:06.384Z,1.80
2019-02-25T04:44:38.982Z,1.80
2019-02-25T04:45:13.337Z,1.80
2019-02-25T04:45:46.151Z,1.80
2019-02-25T04:46:18.956Z,1.80
2019-02-25T04:46:51.468Z,1.70
2019-02-25T04:47:24.753Z,1.70
2019-02-25T04:47:57.241Z,1.70
2019-02-25T04:48:29.732Z,1.70
2019-02-25T04:49:02.212Z,1.70
2019-02-25T04:49:35.128Z,1.70
2019-02-25T04:50:08.423Z,1.70
2019-02-25T04:50:41.232Z,1.70
2019-02-25T04:51:13.717Z,1.70
2019-02-25T04:51:46.503Z,1.60
2019-02-25T04:52:19.376Z,1.60
2019-02-25T04:52:51.866Z,1.60
2019-02-25T04:53:24.345Z,1.60
2019-02-25T04:53:56.829Z,1.60
2019-02-25T04:54:30.026Z,1.60
2019-02-25T04:55:02.801Z,1.60
2019-02-25T04:55:35.575Z,1.60
2019-02-25T04:56:08.455Z,1.60
2019-02-25T04:56:41.523Z,1.60
2019-02-25T04:57:14.386Z,1.60
2019-02-25T04:57:46.888Z,1.60
2019-02-25T04:58:19.388Z,1.50
2019-02-25T04:58:51.858Z,1.60
2019-02-25T04:59:24.326Z,1.50
2019-02-25T04:59:56.821Z,1.60
2019-02-25T05:00:29.278Z,1.60
2019-02-25T05:01:01.775Z,1.60
2019-02-25T05:01:34.239Z,1.60
2019-02-25T05:02:07.362Z,1.60
2019-02-25T05:02:39.818Z,1.60
2019-02-25T05:03:12.277Z,1.60
2019-02-25T05:03:44.784Z,1.60
2019-02-25T05:04:17.265Z,1.60
2019-02-25T05:04:50.065Z,1.60
2019-02-25T05:05:22.539Z,1.60
2019-02-25T05:05:55.011Z,1.60
2019-02-25T05:06:27.478Z,1.60
2019-02-25T05:07:00.275Z,1.60
2019-02-25T05:07:32.742Z,1.60
2019-02-25T05:08:05.220Z,1.60
2019-02-25T05:08:38.081Z,1.60
2019-02-25T05:09:10.865Z,1.60
2019-02-25T05:09:43.703Z,1.70
2019-02-25T05:10:16.191Z,1.70
2019-02-25T05:10:48.686Z,1.70
2019-02-25T05:11:23.123Z,1.70
2019-02-25T05:11:55.594Z,1.70
2019-02-25T05:12:28.079Z,1.70
2019-02-25T05:13:04.549Z,1.70
2019-02-25T05:13:37.023Z,1.70
2019-02-25T05:14:09.489Z,1.70
2019-02-25T05:14:42.001Z,1.80
2019-02-25T05:15:15.811Z,1.80
2019-02-25T05:15:48.600Z,1.80
2019-02-25T05:16:21.491Z,1.80
2019-02-25T05:16:54.256Z,1.80
2019-02-25T05:17:26.743Z,1.80
2019-02-25T05:17:59.682Z,1.80
2019-02-25T05:18:32.146Z,1.70
2019-02-25T05:19:04.628Z,1.80
2019-02-25T05:19:37.103Z,1.70
2019-02-25T05:20:09.615Z,1.70
2019-02-25T05:20:42.081Z,1.70
2019-02-25T05:21:15.263Z,1.70
2019-02-25T05:21:48.540Z,1.70
2019-02-25T05:22:21.001Z,1.70
2019-02-25T05:22:53.488Z,1.70
2019-02-25T05:23:26.233Z,1.70
2019-02-25T05:23:58.706Z,1.70
2019-02-25T05:24:31.561Z,1.70
2019-02-25T05:25:05.895Z,1.70
2019-02-25T05:25:39.136Z,1.70
2019-02-25T05:26:11.912Z,1.60
2019-02-25T05:26:44.744Z,1.70
2019-02-25T05:27:17.229Z,1.60
2019-02-25T05:27:49.721Z,1.60
2019-02-25T05:28:22.211Z,1.60
2019-02-25T05:28:54.701Z,1.60
2019-02-25T05:29:27.741Z,1.60
2019-02-25T05:30:00.364Z,1.60
2019-02-25T05:30:32.812Z,1.60
2019-02-25T05:31:05.686Z,1.60
2019-02-25T05:31:38.173Z,1.60
2019-02-25T05:32:10.660Z,1.60
2019-02-25T05:32:43.481Z,1.60
2019-02-25T05:33:15.955Z,1.60
2019-02-25T05:33:48.708Z,1.60
2019-02-25T05:34:21.557Z,1.60
2019-02-25T05:34:54.034Z,1.60
2019-02-25T05:35:26.511Z,1.60
2019-02-25T05:35:58.979Z,1.60
2019-02-25T05:36:31.495Z,1.60
2019-02-25T05:37:04.355Z,1.60
2019-02-25T05:37:36.856Z,1.60
2019-02-25T05:38:09.770Z,1.60
2019-02-25T05:38:42.242Z,1.60
2019-02-25T05:39:14.731Z,1.50
2019-02-25T05:39:47.198Z,1.50
2019-02-25T05:40:19.703Z,1.50
2019-02-25T05:40:52.576Z,1.50
2019-02-25T05:41:25.430Z,1.50
2019-02-25T05:41:57.914Z,1.50
2019-02-25T05:42:30.757Z,1.50
2019-02-25T05:43:03.691Z,1.50
2019-02-25T05:43:36.161Z,1.40
2019-02-25T05:44:08.702Z,1.50
2019-02-25T05:44:41.928Z,1.50
2019-02-25T05:45:14.612Z,1.40
2019-02-25T05:45:47.391Z,1.40
2019-02-25T05:46:20.233Z,1.40
2019-02-25T05:46:53.077Z,1.40
2019-02-25T05:47:25.976Z,1.40
2019-02-25T05:47:58.717Z,1.40
2019-02-25T05:48:31.190Z,1.30
2019-02-25T05:49:03.975Z,1.30
2019-02-25T05:49:36.447Z,1.30
2019-02-25T05:50:11.274Z,1.30
2019-02-25T05:50:43.735Z,1.30
2019-02-25T05:51:16.572Z,1.30
2019-02-25T05:51:49.044Z,1.20
2019-02-25T05:52:21.528Z,1.20
2019-02-25T05:52:54.021Z,1.20
2019-02-25T05:53:26.519Z,1.20
2019-02-25T05:53:58.992Z,1.20
2019-02-25T05:54:31.458Z,1.20
2019-02-25T05:55:05.336Z,1.20
2019-02-25T05:55:37.832Z,1.20
2019-02-25T05:56:10.297Z,1.20
2019-02-25T05:56:43.714Z,1.20
2019-02-25T05:57:16.727Z,1.20
2019-02-25T05:57:49.305Z,1.20
2019-02-25T05:58:22.206Z,1.20
2019-02-25T05:58:54.686Z,1.20
2019-02-25T05:59:27.474Z,1.20
2019-02-25T05:59:59.962Z,1.10
2019-02-25T06:00:32.658Z,1.20
2019-02-25T06:01:05.130Z,1.20
2019-02-25T06:01:37.609Z,1.10
2019-02-25T06:02:10.398Z,1.20
2019-02-25T06:02:42.883Z,1.20
2019-02-25T06:03:15.363Z,1.20
2019-02-25T06:03:48.215Z,1.20
2019-02-25T06:04:21.024Z,1.20
2019-02-25T06:04:53.521Z,1.20
2019-02-25T06:05:26.319Z,1.20
2019-02-25T06:05:58.805Z,1.20
2019-02-25T06:06:32.030Z,1.20
2019-02-25T06:07:04.905Z,1.20
2019-02-25T06:07:37.410Z,1.20
2019-02-25T06:08:10.940Z,1.20
2019-02-25T06:08:43.416Z,1.20
2019-02-25T06:09:16.299Z,1.20
2019-02-25T06:09:49.116Z,1.20
2019-02-25T06:10:21.593Z,1.20
2019-02-25T06:10:54.080Z,1.20
2019-02-25T06:11:26.545Z,1.10
2019-02-25T06:11:59.018Z,1.20
2019-02-25T06:12:31.859Z,1.10
2019-02-25T06:13:04.345Z,1.10
2019-02-25T06:13:36.860Z,1.20
2019-02-25T06:14:09.283Z,1.20
2019-02-25T06:14:41.776Z,1.20
2019-02-25T06:15:14.312Z,1.20
2019-02-25T06:15:46.918Z,1.10
2019-02-25T06:16:20.117Z,1.10
2019-02-25T06:16:52.982Z,1.10
2019-02-25T06:17:25.455Z,1.10
2019-02-25T06:17:57.926Z,1.10
2019-02-25T06:18:30.404Z,1.10
2019-02-25T06:19:03.222Z,1.10
2019-02-25T06:19:35.998Z,1.10
2019-02-25T06:20:09.635Z,1.10
2019-02-25T06:20:42.472Z,1.10
2019-02-25T06:21:15.330Z,1.10
2019-02-25T06:21:47.803Z,1.10
2019-02-25T06:22:20.275Z,1.10
2019-02-25T06:22:53.126Z,1.10
2019-02-25T06:23:25.884Z,1.10
2019-02-25T06:23:58.362Z,1.10
2019-02-25T06:24:30.830Z,1.20
2019-02-25T06:25:04.025Z,1.20
2019-02-25T06:25:36.522Z,1.10
2019-02-25T06:26:09.069Z,1.10
2019-02-25T06:26:41.492Z,1.20
2019-02-25T06:27:13.975Z,1.20
2019-02-25T06:27:46.907Z,1.20
2019-02-25T06:28:20.092Z,1.20
2019-02-25T06:28:52.967Z,1.20
2019-02-25T06:29:25.444Z,1.20
2019-02-25T06:29:57.916Z,1.30
2019-02-25T06:30:30.397Z,1.30
2019-02-25T06:31:03.266Z,1.30
2019-02-25T06:31:36.041Z,1.30
2019-02-25T06:32:08.514Z,1.30
2019-02-25T06:32:41.524Z,1.30
2019-02-25T06:33:14.277Z,1.30
2019-02-25T06:33:47.580Z,1.30
2019-02-25T06:34:20.149Z,1.30
2019-02-25T06:34:53.368Z,1.30
2019-02-25T06:35:25.847Z,1.30
2019-02-25T06:35:58.326Z,1.30
2019-02-25T06:36:30.834Z,1.40
2019-02-25T06:37:03.323Z,1.40
2019-02-25T06:37:36.117Z,1.40
2019-02-25T06:38:08.599Z,1.40
2019-02-25T06:38:41.086Z,1.40
2019-02-25T06:39:13.574Z,1.40
2019-02-25T06:39:46.051Z,1.40
2019-02-25T06:40:18.532Z,1.40
2019-02-25T06:40:51.011Z,1.40
2019-02-25T06:41:23.856Z,1.50
2019-02-25T06:41:56.363Z,1.50
2019-02-25T06:42:28.855Z,1.50
2019-02-25T06:43:01.326Z,1.50
2019-02-25T06:43:34.166Z,1.50
2019-02-25T06:44:06.648Z,1.50
2019-02-25T06:44:39.874Z,1.50
2019-02-25T06:45:14.538Z,1.60
2019-02-25T06:45:47.337Z,1.60
2019-02-25T06:46:19.820Z,1.60
2019-02-25T06:46:52.295Z,1.60
2019-02-25T06:47:24.809Z,1.70
2019-02-25T06:47:57.278Z,1.70
2019-02-25T06:48:29.907Z,1.80
2019-02-25T06:49:02.392Z,1.80
2019-02-25T06:49:34.868Z,1.80
2019-02-25T06:50:08.363Z,1.80
2019-02-25T06:50:41.219Z,1.90
2019-02-25T06:51:13.979Z,1.90
2019-02-25T06:51:46.445Z,1.90
2019-02-25T06:52:20.091Z,1.90
2019-02-25T06:52:52.798Z,2.00
2019-02-25T06:53:25.565Z,2.00
2019-02-25T06:53:58.049Z,2.00
2019-02-25T06:54:30.898Z,2.10
2019-02-25T06:55:04.018Z,2.10
2019-02-25T06:55:37.227Z,2.20
2019-02-25T06:56:09.707Z,2.20
2019-02-25T06:56:42.453Z,2.30
2019-02-25T06:57:15.285Z,2.40
2019-02-25T06:57:48.208Z,2.50
2019-02-25T06:58:22.833Z,2.50
2019-02-25T06:58:55.336Z,2.50
2019-02-25T06:59:28.140Z,2.50
2019-02-25T07:00:00.756Z,2.60
2019-02-25T07:00:33.263Z,2.60
2019-02-25T07:01:05.755Z,2.70
2019-02-25T07:01:38.222Z,2.80
2019-02-25T07:02:11.812Z,2.80
2019-02-25T07:02:44.576Z,2.80
2019-02-25T07:03:17.452Z,2.80
2019-02-25T07:04:09.451Z,2.90
2019-02-25T07:04:59.439Z,2.90
2019-02-25T07:05:56.773Z,3.10
2019-02-25T07:06:38.232Z,3.20
2019-02-25T07:07:14.374Z,3.30
2019-02-25T07:08:04.045Z,3.40
2019-02-25T07:08:42.860Z,3.50
2019-02-25T07:09:49.910Z,3.60
2019-02-25T07:10:47.379Z,3.70
2019-02-25T07:11:27.835Z,3.90
2019-02-25T07:12:09.014Z,4.00
2019-02-25T07:13:00.975Z,4.00
2019-02-25T07:13:55.719Z,4.10
2019-02-25T07:14:53.519Z,4.10
2019-02-25T07:15:40.249Z,4.10
2019-02-25T07:16:20.386Z,4.20
2019-02-25T07:17:00.440Z,4.20
2019-02-25T07:18:07.575Z,4.10
2019-02-25T07:19:02.660Z,4.10
2019-02-25T07:19:45.210Z,4.00
2019-02-25T07:20:24.943Z,4.00
2019-02-25T07:21:07.417Z,4.00
2019-02-25T07:21:54.525Z,4.00
2019-02-25T07:22:42.953Z,4.00
2019-02-25T07:23:43.872Z,4.00
2019-02-25T07:24:42.173Z,4.00
2019-02-25T07:25:40.660Z,4.10
2019-02-25T07:26:27.583Z,4.20